createdAt,value
2023-01-06T00:00:11.761Z,101519.72
2023-01-06T00:02:38.517Z,101525.31
2023-01-06T00:05:05.387Z,101521.19
2023-01-06T00:07:31.882Z,101523.88
2023-01-06T00:09:58.283Z,101519.56
2023-01-06T00:12:24.612Z,101517.91
2023-01-06T00:14:51.052Z,101514.56
2023-01-06T00:17:17.447Z,101518.28
2023-01-06T00:19:43.842Z,101512.06
2023-01-06T00:22:10.443Z,101515.81
2023-01-06T00:24:37.055Z,101512.31
2023-01-06T00:27:03.634Z,101508.97
2023-01-06T00:29:30.269Z,101508.16
2023-01-06T00:31:57.057Z,101516.66
2023-01-06T00:34:23.726Z,101520.16
2023-01-06T00:36:50.079Z,101518.50
2023-01-06T00:39:16.440Z,101518.72
2023-01-06T00:41:42.831Z,101517.91
2023-01-06T00:44:09.667Z,101510.06
2023-01-06T00:46:36.031Z,101512.75
2023-01-06T00:49:07.156Z,101507.56
2023-01-06T00:51:34.229Z,101514.78
2023-01-06T00:54:00.687Z,101519.56
2023-01-06T00:56:27.105Z,101523.31
2023-01-06T00:58:53.638Z,101531.38
2023-01-06T01:01:20.101Z,101528.88
2023-01-06T01:03:46.534Z,101529.09
2023-01-06T01:06:12.891Z,101529.09
2023-01-06T01:08:39.295Z,101528.25
2023-01-06T01:11:05.947Z,101528.47
2023-01-06T01:13:32.376Z,101533.25
2023-01-06T01:15:58.884Z,101541.09
2023-01-06T01:18:25.385Z,101527.03
2023-01-06T01:20:51.956Z,101521.84
2023-01-06T01:23:18.260Z,101517.31
2023-01-06T01:25:44.674Z,101518.34
2023-01-06T01:28:10.991Z,101506.75
2023-01-06T01:30:37.565Z,101504.28
2023-01-06T01:33:04.132Z,101513.38
2023-01-06T01:35:30.563Z,101527.88
2023-01-06T01:37:57.006Z,101525.19
2023-01-06T01:40:23.772Z,101516.50
2023-01-06T01:42:50.232Z,101529.94
2023-01-06T01:45:16.998Z,101529.13
2023-01-06T01:47:43.293Z,101536.34
2023-01-06T01:50:09.824Z,101533.66
2023-01-06T01:52:36.263Z,101529.31
2023-01-06T01:55:02.927Z,101522.50
2023-01-06T01:57:29.753Z,101524.16
2023-01-06T01:59:56.142Z,101531.38
2023-01-06T02:02:22.843Z,101524.56
2023-01-06T02:04:49.828Z,101515.50
2023-01-06T02:07:16.558Z,101505.75
2023-01-06T02:09:44.907Z,101502.25
2023-01-06T02:12:13.126Z,101494.19
2023-01-06T02:14:40.008Z,101499.78
2023-01-06T02:17:07.280Z,101490.88
2023-01-06T02:19:35.001Z,101475.78
2023-01-06T02:22:01.696Z,101489.22
2023-01-06T02:24:29.190Z,101488.63
2023-01-06T02:26:55.665Z,101488.63
2023-01-06T02:29:22.289Z,101484.03
2023-01-06T02:31:49.191Z,101490.47
2023-01-06T02:34:15.770Z,101496.03
2023-01-06T02:36:42.154Z,101496.25
2023-01-06T02:39:09.116Z,101497.28
2023-01-06T02:41:35.583Z,101493.78
2023-01-06T02:44:02.185Z,101487.59
2023-01-06T02:46:28.630Z,101478.69
2023-01-06T02:48:55.637Z,101469.56
2023-01-06T02:51:22.208Z,101453.69
2023-01-06T02:53:48.526Z,101461.13
2023-01-06T02:56:15.011Z,101462.97
2023-01-06T02:58:41.392Z,101468.34
2023-01-06T03:01:07.917Z,101473.72
2023-01-06T03:03:36.068Z,101472.91
2023-01-06T03:06:03.097Z,101473.13
2023-01-06T03:08:29.510Z,101460.72
2023-01-06T03:10:55.951Z,101462.38
2023-01-06T03:13:22.656Z,101458.25
2023-01-06T03:15:49.974Z,101460.94
2023-01-06T03:18:16.836Z,101453.91
2023-01-06T03:20:43.934Z,101456.59
2023-01-06T03:23:10.407Z,101449.53
2023-01-06T03:25:37.183Z,101437.16
2023-01-06T03:28:03.717Z,101439.03
2023-01-06T03:30:30.116Z,101442.72
2023-01-06T03:32:56.829Z,101447.09
2023-01-06T03:35:23.411Z,101443.78
2023-01-06T03:37:49.847Z,101433.22
2023-01-06T03:40:16.596Z,101438.59
2023-01-06T03:42:42.990Z,101438.59
2023-01-06T03:45:09.412Z,101428.06
2023-01-06T03:47:36.317Z,101430.75
2023-01-06T03:50:03.099Z,101441.50
2023-01-06T03:52:29.970Z,101439.84
2023-01-06T03:54:56.318Z,101438.19
2023-01-06T03:57:22.639Z,101433.66
2023-01-06T03:59:49.262Z,101437.16
2023-01-06T04:02:15.834Z,101427.47
2023-01-06T04:04:42.398Z,101429.50
2023-01-06T04:07:08.909Z,101415.47
2023-01-06T04:09:35.292Z,101410.94
2023-01-06T04:12:02.034Z,101404.72
2023-01-06T04:14:28.482Z,101407.41
2023-01-06T04:16:54.774Z,101410.09
2023-01-06T04:19:21.273Z,101412.19
2023-01-06T04:21:47.878Z,101400.41
2023-01-06T04:24:14.304Z,101404.94
2023-01-06T04:26:40.939Z,101395.44
2023-01-06T04:29:07.352Z,101398.97
2023-01-06T04:31:35.520Z,101394.38
2023-01-06T04:34:02.431Z,101394.59
2023-01-06T04:36:29.316Z,101382.19
2023-01-06T04:38:55.917Z,101383.03
2023-01-06T04:41:22.279Z,101373.94
2023-01-06T04:43:48.780Z,101374.97
2023-01-06T04:46:15.227Z,101366.28
2023-01-06T04:48:41.583Z,101367.97
2023-01-06T04:51:07.984Z,101363.59
2023-01-06T04:53:34.599Z,101356.59
2023-01-06T04:56:01.097Z,101357.44
2023-01-06T04:58:27.468Z,101362.78
2023-01-06T05:00:54.213Z,101361.13
2023-01-06T05:03:20.619Z,101361.34
2023-01-06T05:05:47.480Z,101351.22
2023-01-06T05:08:13.975Z,101336.94
2023-01-06T05:10:40.339Z,101341.50
2023-01-06T05:13:06.894Z,101345.25
2023-01-06T05:15:33.300Z,101347.09
2023-01-06T05:17:59.851Z,101347.28
2023-01-06T05:20:26.464Z,101344.59
2023-01-06T05:22:52.807Z,101353.50
2023-01-06T05:25:19.472Z,101354.75
2023-01-06T05:27:45.853Z,101355.56
2023-01-06T05:30:12.315Z,101355.56
2023-01-06T05:32:38.777Z,101351.22
2023-01-06T05:35:05.295Z,101345.25
2023-01-06T05:37:31.926Z,101346.06
2023-01-06T05:39:58.439Z,101335.53
2023-01-06T05:42:25.134Z,101332.84
2023-01-06T05:44:51.527Z,101327.47
2023-01-06T05:47:18.115Z,101336.56
2023-01-06T05:49:46.257Z,101333.88
2023-01-06T05:52:13.273Z,101341.09
2023-01-06T05:54:39.678Z,101332.44
2023-01-06T05:57:06.292Z,101331.41
2023-01-06T05:59:33.252Z,101327.66
2023-01-06T06:01:59.680Z,101313.63
2023-01-06T06:04:26.094Z,101309.31
2023-01-06T06:06:52.857Z,101305.78
2023-01-06T06:09:19.241Z,101307.66
2023-01-06T06:11:45.934Z,101302.31
2023-01-06T06:14:12.475Z,101302.31
2023-01-06T06:16:39.296Z,101300.63
2023-01-06T06:19:05.740Z,101288.25
2023-01-06T06:21:32.239Z,101285.56
2023-01-06T06:23:58.740Z,101277.50
2023-01-06T06:26:25.279Z,101276.66
2023-01-06T06:28:51.905Z,101281.81
2023-01-06T06:31:18.325Z,101278.34
2023-01-06T06:33:44.862Z,101272.75
2023-01-06T06:36:11.566Z,101272.13
2023-01-06T06:38:38.056Z,101275.84
2023-01-06T06:41:04.565Z,101271.50
2023-01-06T06:43:31.229Z,101267.13
2023-01-06T06:45:57.630Z,101266.34
2023-01-06T06:48:24.022Z,101258.06
2023-01-06T06:50:50.390Z,101252.69
2023-01-06T06:53:16.781Z,101251.88
2023-01-06T06:55:43.383Z,101254.75
2023-01-06T06:58:09.742Z,101253.94
2023-01-06T07:00:36.427Z,101255.59
2023-01-06T07:03:02.756Z,101249.38
2023-01-06T07:05:29.148Z,101243.63
2023-01-06T07:07:55.808Z,101241.97
2023-01-06T07:10:22.222Z,101232.88
2023-01-06T07:12:49.131Z,101228.56
2023-01-06T07:15:15.612Z,101242.19
2023-01-06T07:17:42.584Z,101240.50
2023-01-06T07:20:09.067Z,101234.13
2023-01-06T07:22:35.621Z,101240.75
2023-01-06T07:25:02.336Z,101245.06
2023-01-06T07:27:29.027Z,101254.78
2023-01-06T07:29:55.366Z,101242.59
2023-01-06T07:32:21.884Z,101238.28
2023-01-06T07:34:48.331Z,101231.84
2023-01-06T07:37:15.071Z,101227.53
2023-01-06T07:39:41.361Z,101225.88
2023-01-06T07:42:07.933Z,101231.25
2023-01-06T07:44:34.438Z,101223.22
2023-01-06T07:47:01.046Z,101217.84
2023-01-06T07:49:27.535Z,101210.59
2023-01-06T07:51:54.412Z,101213.06
2023-01-06T07:54:20.930Z,101211.22
2023-01-06T07:56:47.499Z,101207.09
2023-01-06T07:59:14.370Z,101208.94
2023-01-06T08:01:40.925Z,101200.88
2023-01-06T08:04:07.628Z,101191.00
2023-01-06T08:06:34.429Z,101193.88
2023-01-06T08:09:01.311Z,101202.75
2023-01-06T08:11:27.679Z,101201.94
2023-01-06T08:13:54.105Z,101197.38
2023-01-06T08:16:21.231Z,101189.31
2023-01-06T08:18:47.671Z,101189.31
2023-01-06T08:21:14.072Z,101183.13
2023-01-06T08:23:40.487Z,101182.50
2023-01-06T08:26:06.988Z,101183.34
2023-01-06T08:28:33.365Z,101180.03
2023-01-06T08:30:59.813Z,101186.25
2023-01-06T08:33:26.217Z,101193.44
2023-01-06T08:35:52.616Z,101195.34
2023-01-06T08:38:18.928Z,101192.66
2023-01-06T08:40:45.512Z,101194.50
2023-01-06T08:43:12.151Z,101196.34
2023-01-06T08:45:38.837Z,101199.28
2023-01-06T08:48:05.267Z,101212.69
2023-01-06T08:50:31.553Z,101211.84
2023-01-06T08:52:57.932Z,101206.50
2023-01-06T08:55:24.249Z,101204.84
2023-01-06T08:57:52.687Z,101196.59
2023-01-06T09:00:21.035Z,101186.06
2023-01-06T09:02:47.546Z,101185.22
2023-01-06T09:05:14.153Z,101190.59
2023-01-06T09:07:40.845Z,101197.00
2023-01-06T09:10:07.159Z,101201.53
2023-01-06T09:12:33.582Z,101193.69
2023-01-06T09:15:00.219Z,101195.34
2023-01-06T09:17:27.100Z,101183.78
2023-01-06T09:19:53.431Z,101186.69
2023-01-06T09:22:19.988Z,101187.50
2023-01-06T09:24:46.710Z,101189.16
2023-01-06T09:27:13.208Z,101182.75
2023-01-06T09:29:40.322Z,101176.78
2023-01-06T09:32:06.897Z,101173.03
2023-01-06T09:34:33.733Z,101187.50
2023-01-06T09:37:00.201Z,101181.31
2023-01-06T09:39:26.956Z,101178.81
2023-01-06T09:41:53.731Z,101167.09
2023-01-06T09:44:20.480Z,101160.28
2023-01-06T09:46:46.934Z,101148.28
2023-01-06T09:49:13.594Z,101157.34
2023-01-06T09:51:39.899Z,101158.19
2023-01-06T09:54:06.170Z,101158.19
2023-01-06T09:56:33.098Z,101155.50
2023-01-06T09:58:59.465Z,101141.25
2023-01-06T10:01:25.866Z,101132.59
2023-01-06T10:03:52.703Z,101129.91
2023-01-06T10:06:19.120Z,101124.56
2023-01-06T10:08:45.524Z,101131.38
2023-01-06T10:11:12.050Z,101136.75
2023-01-06T10:13:38.466Z,101140.25
2023-01-06T10:16:04.899Z,101125.38
2023-01-06T10:18:31.197Z,101123.53
2023-01-06T10:20:57.529Z,101122.50
2023-01-06T10:23:24.040Z,101118.16
2023-01-06T10:25:50.364Z,101096.50
2023-01-06T10:28:17.443Z,101077.69
2023-01-06T10:30:44.628Z,101074.63
2023-01-06T10:33:11.138Z,101063.91
2023-01-06T10:35:38.126Z,101066.56
2023-01-06T10:38:04.577Z,101052.13
2023-01-06T10:40:31.149Z,101066.56
2023-01-06T10:42:57.554Z,101073.78
2023-01-06T10:45:24.283Z,101072.97
2023-01-06T10:47:50.978Z,101064.09
2023-01-06T10:50:17.512Z,101064.91
2023-01-06T10:52:43.947Z,101065.94
2023-01-06T10:55:10.643Z,101056.84
2023-01-06T10:57:37.173Z,101043.69
2023-01-06T11:00:03.970Z,101043.69
2023-01-06T11:02:30.712Z,101053.56
2023-01-06T11:04:57.190Z,101044.47
2023-01-06T11:07:23.870Z,101050.91
2023-01-06T11:09:50.352Z,101039.94
2023-01-06T11:12:17.181Z,101035.63
2023-01-06T11:14:43.455Z,101023.44
2023-01-06T11:17:09.781Z,101027.38
2023-01-06T11:19:36.484Z,101020.38
2023-01-06T11:22:03.117Z,101008.00
2023-01-06T11:24:29.450Z,100999.72
2023-01-06T11:26:56.095Z,101010.47
2023-01-06T11:29:22.637Z,101008.00
2023-01-06T11:31:49.298Z,101013.34
2023-01-06T11:34:15.687Z,101014.78
2023-01-06T11:36:42.023Z,101005.09
2023-01-06T11:39:08.426Z,101001.38
2023-01-06T11:41:34.966Z,101005.09
2023-01-06T11:44:01.276Z,100980.94
2023-01-06T11:46:27.834Z,100977.44
2023-01-06T11:48:54.949Z,100970.22
2023-01-06T11:51:21.570Z,100970.22
2023-01-06T11:53:47.935Z,100967.53
2023-01-06T11:56:14.348Z,100970.44
2023-01-06T11:58:41.393Z,100975.78
2023-01-06T12:01:08.263Z,100966.91
2023-01-06T12:03:35.275Z,100966.31
2023-01-06T12:06:01.930Z,100966.94
2023-01-06T12:08:28.679Z,100961.78
2023-01-06T12:10:56.034Z,100959.34
2023-01-06T12:13:22.818Z,100960.78
2023-01-06T12:15:49.133Z,100955.63
2023-01-06T12:18:15.492Z,100956.44
2023-01-06T12:20:41.883Z,100952.09
2023-01-06T12:23:08.355Z,100954.56
2023-01-06T12:25:34.985Z,100954.38
2023-01-06T12:28:01.582Z,100952.50
2023-01-06T12:30:28.377Z,100951.69
2023-01-06T12:32:55.295Z,100957.25
2023-01-06T12:35:21.974Z,100961.59
2023-01-06T12:37:48.496Z,100955.41
2023-01-06T12:40:14.975Z,100945.69
2023-01-06T12:42:41.321Z,100940.34
2023-01-06T12:45:08.257Z,100931.03
2023-01-06T12:47:35.263Z,100930.00
2023-01-06T12:50:01.863Z,100930.81
2023-01-06T12:52:28.620Z,100924.44
2023-01-06T12:54:55.097Z,100927.13
2023-01-06T12:57:21.440Z,100925.25
2023-01-06T12:59:47.935Z,100924.19
2023-01-06T13:02:14.414Z,100919.88
2023-01-06T13:04:41.026Z,100927.91
2023-01-06T13:07:07.599Z,100926.28
2023-01-06T13:09:34.264Z,100918.81
2023-01-06T13:12:00.875Z,100921.75
2023-01-06T13:14:27.238Z,100920.09
2023-01-06T13:16:53.845Z,100925.44
2023-01-06T13:19:20.679Z,100922.75
2023-01-06T13:21:47.649Z,100925.66
2023-01-06T13:24:14.339Z,100931.84
2023-01-06T13:26:41.027Z,100932.69
2023-01-06T13:29:07.948Z,100949.00
2023-01-06T13:31:34.772Z,100947.97
2023-01-06T13:34:01.589Z,100940.75
2023-01-06T13:36:28.140Z,100944.22
2023-01-06T13:38:54.729Z,100950.63
2023-01-06T13:41:21.265Z,100942.59
2023-01-06T13:43:47.601Z,100946.31
2023-01-06T13:46:14.232Z,100946.09
2023-01-06T13:48:40.803Z,100941.75
2023-01-06T13:51:07.732Z,100949.00
2023-01-06T13:53:34.203Z,100944.44
2023-01-06T13:56:00.809Z,100936.38
2023-01-06T13:58:27.720Z,100944.44
2023-01-06T14:00:54.370Z,100935.59
2023-01-06T14:03:20.860Z,100932.91
2023-01-06T14:05:47.734Z,100931.03
2023-01-06T14:08:14.268Z,100936.63
2023-01-06T14:10:40.724Z,100942.81
2023-01-06T14:13:07.514Z,100937.44
2023-01-06T14:15:33.910Z,100945.47
2023-01-06T14:18:00.462Z,100942.81
2023-01-06T14:20:28.045Z,100956.22
2023-01-06T14:22:54.388Z,100954.38
2023-01-06T14:25:21.064Z,100958.09
2023-01-06T14:27:47.913Z,100956.44
2023-01-06T14:30:14.668Z,100957.25
2023-01-06T14:32:41.421Z,100960.78
2023-01-06T14:35:08.041Z,100955.41
2023-01-06T14:37:34.651Z,100960.78
2023-01-06T14:40:01.184Z,100963.47
2023-01-06T14:42:27.828Z,100962.41
2023-01-06T14:44:54.535Z,100964.25
2023-01-06T14:47:21.290Z,100959.94
2023-01-06T14:49:47.676Z,100969.03
2023-01-06T14:52:14.125Z,100980.38
2023-01-06T14:54:40.728Z,100977.88
2023-01-06T14:57:07.215Z,100977.88
2023-01-06T14:59:33.588Z,100980.56
2023-01-06T15:02:00.241Z,100979.78
2023-01-06T15:04:26.793Z,100980.56
2023-01-06T15:06:53.454Z,100978.13
2023-01-06T15:09:20.108Z,100983.25
2023-01-06T15:11:46.770Z,100975.44
2023-01-06T15:14:13.615Z,100985.94
2023-01-06T15:16:40.123Z,100979.97
2023-01-06T15:19:07.143Z,100976.25
2023-01-06T15:21:34.230Z,100991.31
2023-01-06T15:24:01.241Z,100987.19
2023-01-06T15:26:27.659Z,100986.38
2023-01-06T15:28:54.766Z,100991.53
2023-01-06T15:31:21.187Z,100984.50
2023-01-06T15:33:47.709Z,100987.19
2023-01-06T15:36:14.149Z,100986.38
2023-01-06T15:38:40.952Z,100988.03
2023-01-06T15:41:07.718Z,100993.41
2023-01-06T15:43:34.466Z,100994.44
2023-01-06T15:46:01.033Z,100997.91
2023-01-06T15:48:27.760Z,101002.47
2023-01-06T15:50:54.331Z,101006.19
2023-01-06T15:53:20.675Z,101008.88
2023-01-06T15:55:47.413Z,101006.19
2023-01-06T15:58:14.155Z,101008.88
2023-01-06T16:00:40.653Z,101017.75
2023-01-06T16:03:07.355Z,101020.44
2023-01-06T16:05:34.091Z,101026.00
2023-01-06T16:08:00.573Z,101012.59
2023-01-06T16:10:27.459Z,101017.94
2023-01-06T16:12:54.068Z,101019.00
2023-01-06T16:15:20.641Z,101022.28
2023-01-06T16:17:47.619Z,101017.16
2023-01-06T16:20:14.019Z,101019.84
2023-01-06T16:22:40.557Z,101027.03
2023-01-06T16:25:07.340Z,101025.19
2023-01-06T16:27:34.235Z,101026.22
2023-01-06T16:30:01.323Z,101024.56
2023-01-06T16:32:28.143Z,101036.94
2023-01-06T16:34:54.615Z,101029.72
2023-01-06T16:37:21.084Z,101028.91
2023-01-06T16:39:47.609Z,101036.13
2023-01-06T16:42:14.077Z,101043.34
2023-01-06T16:44:40.716Z,101042.50
2023-01-06T16:47:07.309Z,101044.41
2023-01-06T16:49:33.847Z,101048.94
2023-01-06T16:52:00.250Z,101050.56
2023-01-06T16:54:27.170Z,101050.56
2023-01-06T16:56:53.913Z,101053.47
2023-01-06T16:59:20.557Z,101062.34
2023-01-06T17:01:47.488Z,101060.50
2023-01-06T17:04:14.176Z,101062.34
2023-01-06T17:06:40.981Z,101071.22
2023-01-06T17:09:07.448Z,101078.44
2023-01-06T17:11:33.944Z,101074.09
2023-01-06T17:14:00.711Z,101081.31
2023-01-06T17:16:27.442Z,101083.19
2023-01-06T17:18:54.063Z,101092.88
2023-01-06T17:21:20.514Z,101083.41
2023-01-06T17:23:46.838Z,101093.94
2023-01-06T17:26:13.418Z,101096.63
2023-01-06T17:28:40.114Z,101092.28
2023-01-06T17:31:06.618Z,101093.94
2023-01-06T17:33:33.381Z,101092.28
2023-01-06T17:35:59.867Z,101098.47
2023-01-06T17:38:26.425Z,101101.34
2023-01-06T17:40:52.744Z,101106.72
2023-01-06T17:43:19.560Z,101107.75
2023-01-06T17:45:45.988Z,101117.44
2023-01-06T17:48:12.562Z,101112.91
2023-01-06T17:50:39.194Z,101117.44
2023-01-06T17:53:05.881Z,101122.81
2023-01-06T17:55:32.480Z,101122.81
2023-01-06T17:57:58.899Z,101130.84
2023-01-06T18:00:25.552Z,101135.41
2023-01-06T18:02:51.950Z,101138.09
2023-01-06T18:05:18.329Z,101143.47
2023-01-06T18:07:44.935Z,101147.16
2023-01-06T18:10:11.470Z,101145.31
2023-01-06T18:12:38.005Z,101150.66
2023-01-06T18:15:04.537Z,101150.06
2023-01-06T18:17:31.107Z,101147.38
2023-01-06T18:19:57.498Z,101151.72
2023-01-06T18:22:24.419Z,101158.13
2023-01-06T18:24:50.945Z,101157.06
2023-01-06T18:27:17.667Z,101159.75
2023-01-06T18:29:44.113Z,101161.59
2023-01-06T18:32:10.461Z,101157.06
2023-01-06T18:34:37.485Z,101161.59
2023-01-06T18:37:03.817Z,101175.03
2023-01-06T18:39:30.309Z,101175.22
2023-01-06T18:41:56.781Z,101172.75
2023-01-06T18:44:23.640Z,101176.06
2023-01-06T18:46:50.103Z,101176.25
2023-01-06T18:49:16.453Z,101168.84
2023-01-06T18:51:43.395Z,101174.22
2023-01-06T18:54:09.805Z,101181.63
2023-01-06T18:56:36.616Z,101176.06
2023-01-06T18:59:02.908Z,101174.63
2023-01-06T19:01:29.296Z,101185.34
2023-01-06T19:03:55.712Z,101182.88
2023-01-06T19:06:22.370Z,101192.56
2023-01-06T19:08:49.218Z,101191.75
2023-01-06T19:11:15.721Z,101186.38
2023-01-06T19:13:42.217Z,101190.09
2023-01-06T19:16:09.002Z,101189.06
2023-01-06T19:18:35.923Z,101190.09
2023-01-06T19:21:02.303Z,101190.91
2023-01-06T19:23:29.329Z,101184.72
2023-01-06T19:25:56.042Z,101191.97
2023-01-06T19:28:22.633Z,101193.81
2023-01-06T19:30:49.238Z,101202.69
2023-01-06T19:33:15.749Z,101200.00
2023-01-06T19:35:42.296Z,101200.00
2023-01-06T19:38:09.055Z,101203.72
2023-01-06T19:40:35.590Z,101200.81
2023-01-06T19:43:02.060Z,101205.38
2023-01-06T19:45:28.502Z,101210.53
2023-01-06T19:48:04.782Z,101209.91
2023-01-06T19:50:31.187Z,101209.09
2023-01-06T19:52:57.568Z,101218.97
2023-01-06T19:55:24.078Z,101218.78
2023-01-06T19:57:50.351Z,101218.16
2023-01-06T20:00:16.839Z,101215.47
2023-01-06T20:02:43.721Z,101217.13
2023-01-06T20:05:10.204Z,101216.28
2023-01-06T20:07:36.713Z,101218.97
2023-01-06T20:10:03.271Z,101220.81
2023-01-06T20:12:29.607Z,101226.38
2023-01-06T20:14:56.192Z,101233.63
2023-01-06T20:17:22.656Z,101233.44
2023-01-06T20:19:49.128Z,101237.94
2023-01-06T20:22:15.394Z,101239.00
2023-01-06T20:24:42.074Z,101240.84
2023-01-06T20:27:08.382Z,101237.13
2023-01-06T20:29:34.738Z,101237.94
2023-01-06T20:32:01.678Z,101239.81
2023-01-06T20:34:28.206Z,101244.56
2023-01-06T20:36:54.632Z,101248.09
2023-01-06T20:39:21.251Z,101250.53
2023-01-06T20:41:47.833Z,101250.31
2023-01-06T20:44:14.683Z,101258.56
2023-01-06T20:46:41.425Z,101254.88
2023-01-06T20:49:07.796Z,101257.78
2023-01-06T20:51:34.118Z,101256.94
2023-01-06T20:54:00.522Z,101267.66
2023-01-06T20:56:27.733Z,101262.28
2023-01-06T20:58:54.528Z,101268.50
2023-01-06T21:01:21.492Z,101263.34
2023-01-06T21:03:47.960Z,101262.28
2023-01-06T21:06:14.952Z,101269.31
2023-01-06T21:08:41.485Z,101277.59
2023-01-06T21:11:08.397Z,101275.09
2023-01-06T21:13:35.210Z,101275.09
2023-01-06T21:16:01.734Z,101275.91
2023-01-06T21:18:28.145Z,101269.53
2023-01-06T21:20:54.616Z,101267.06
2023-01-06T21:23:21.456Z,101264.38
2023-01-06T21:25:47.864Z,101273.22
2023-01-06T21:28:14.521Z,101269.53
2023-01-06T21:30:40.947Z,101269.94
2023-01-06T21:33:07.287Z,101274.25
2023-01-06T21:35:33.910Z,101268.28
2023-01-06T21:38:00.715Z,101266.22
2023-01-06T21:40:27.685Z,101272.63
2023-01-06T21:42:54.113Z,101281.50
2023-01-06T21:45:20.886Z,101268.28
2023-01-06T21:47:47.441Z,101273.47
2023-01-06T21:50:14.105Z,101277.97
2023-01-06T21:52:40.607Z,101276.13
2023-01-06T21:55:07.262Z,101279.81
2023-01-06T21:57:33.553Z,101279.81
2023-01-06T21:59:59.941Z,101281.69
2023-01-06T22:02:26.760Z,101277.97
2023-01-06T22:04:53.392Z,101286.22
2023-01-06T22:07:19.821Z,101283.34
2023-01-06T22:09:46.589Z,101287.88
2023-01-06T22:12:13.068Z,101281.69
2023-01-06T22:14:39.768Z,101285.19
2023-01-06T22:17:06.672Z,101284.19
2023-01-06T22:19:33.272Z,101284.38
2023-01-06T22:21:59.679Z,101282.72
2023-01-06T22:24:26.184Z,101284.59
2023-01-06T22:26:52.581Z,101291.59
2023-01-06T22:29:19.291Z,101297.78
2023-01-06T22:31:45.604Z,101296.97
2023-01-06T22:34:12.272Z,101299.63
2023-01-06T22:36:38.819Z,101296.34
2023-01-06T22:39:05.547Z,101295.50
2023-01-06T22:41:31.937Z,101306.03
2023-01-06T22:43:58.563Z,101297.34
2023-01-06T22:46:25.354Z,101298.00
2023-01-06T22:48:51.798Z,101302.53
2023-01-06T22:51:18.283Z,101306.84
2023-01-06T22:53:44.559Z,101300.69
2023-01-06T22:56:11.099Z,101299.03
2023-01-06T22:58:37.545Z,101302.53
2023-01-06T23:01:04.221Z,101302.53
2023-01-06T23:03:31.449Z,101299.84
2023-01-06T23:05:57.893Z,101299.03
2023-01-06T23:08:24.233Z,101300.88
2023-01-06T23:10:51.350Z,101311.81
2023-01-06T23:13:18.289Z,101302.91
2023-01-06T23:15:44.957Z,101307.28
2023-01-06T23:18:12.246Z,101301.91
2023-01-06T23:20:39.368Z,101301.91
2023-01-06T23:23:06.240Z,101300.03
2023-01-06T23:25:32.965Z,101307.06
2023-01-06T23:27:59.365Z,101300.03
2023-01-06T23:30:26.360Z,101302.72
2023-01-06T23:32:53.525Z,101302.72
2023-01-06T23:35:20.417Z,101298.59
2023-01-06T23:37:47.380Z,101303.94
2023-01-06T23:40:14.056Z,101303.75
2023-01-06T23:42:48.329Z,101301.91
2023-01-06T23:45:15.406Z,101297.78
2023-01-06T23:47:42.282Z,101304.59
2023-01-06T23:50:08.845Z,101304.59
2023-01-06T23:52:35.384Z,101304.78
2023-01-06T23:55:02.265Z,101303.75
2023-01-06T23:57:28.876Z,101301.91
2023-01-06T23:59:55.361Z,101297.78
